Terminal Aerodrome Forecast
Issued by NWS

Home | Current Version | Previous Version | Text Only | Print | Product List | Glossary Off
Versions: 1 2 3 4 5 6 7 8 9 10 11 12 13 14 15 16 17 18

000
FTUS43 KGRB 241532 AAA
TAFATW
TAF AMD
KATW 241532Z 2416/2512 VRB03KT P6SM -RA OVC035 WS020/26035KT
     FM241700 04007KT 4SM -RA OVC025
     FM241900 04010G19KT 4SM -RA OVC007
     FM250600 05011G21KT 5SM -RA OVC005=

USA.gov is the U.S. government's official web portal to all federal, state and local government web resources and services.